sensor_id;sensor_type;location;lat;lon;timestamp;temperature;humidity
13848;DHT22;6994;49.752;6.094;2023-02-28T00:01:37;-1.00;97.80
13848;DHT22;6994;49.752;6.094;2023-02-28T00:04:05;-1.10;97.90
13848;DHT22;6994;49.752;6.094;2023-02-28T00:06:33;-1.20;97.90
13848;DHT22;6994;49.752;6.094;2023-02-28T00:09:00;-1.20;98.00
13848;DHT22;6994;49.752;6.094;2023-02-28T00:11:27;-1.30;98.10
13848;DHT22;6994;49.752;6.094;2023-02-28T00:13:55;-1.40;98.20
13848;DHT22;6994;49.752;6.094;2023-02-28T00:16:22;-1.50;98.40
13848;DHT22;6994;49.752;6.094;2023-02-28T00:18:49;-1.60;98.50
13848;DHT22;6994;49.752;6.094;2023-02-28T00:21:16;-1.70;98.60
13848;DHT22;6994;49.752;6.094;2023-02-28T00:23:43;-1.60;99.90
13848;DHT22;6994;49.752;6.094;2023-02-28T00:26:10;-1.50;99.60
13848;DHT22;6994;49.752;6.094;2023-02-28T00:28:38;-1.60;99.40
13848;DHT22;6994;49.752;6.094;2023-02-28T00:31:05;-1.60;99.40
13848;DHT22;6994;49.752;6.094;2023-02-28T00:33:32;-1.70;99.40
13848;DHT22;6994;49.752;6.094;2023-02-28T00:36:03;-1.80;99.50
13848;DHT22;6994;49.752;6.094;2023-02-28T00:38:29;-1.90;99.50
13848;DHT22;6994;49.752;6.094;2023-02-28T00:40:56;-1.90;99.60
13848;DHT22;6994;49.752;6.094;2023-02-28T00:43:24;-1.90;99.90
13848;DHT22;6994;49.752;6.094;2023-02-28T00:45:51;-2.00;99.90
13848;DHT22;6994;49.752;6.094;2023-02-28T00:48:18;-1.80;99.90
13848;DHT22;6994;49.752;6.094;2023-02-28T00:50:47;-1.70;99.90
13848;DHT22;6994;49.752;6.094;2023-02-28T00:53:12;-1.50;99.90
13848;DHT22;6994;49.752;6.094;2023-02-28T00:55:40;-1.50;99.90
13848;DHT22;6994;49.752;6.094;2023-02-28T00:58:07;-1.60;99.90
13848;DHT22;6994;49.752;6.094;2023-02-28T01:00:34;-1.80;99.90
13848;DHT22;6994;49.752;6.094;2023-02-28T01:03:02;-1.90;99.90
13848;DHT22;6994;49.752;6.094;2023-02-28T01:05:29;-2.00;99.90
13848;DHT22;6994;49.752;6.094;2023-02-28T01:07:56;-2.00;99.90
13848;DHT22;6994;49.752;6.094;2023-02-28T01:10:25;-2.00;99.90
13848;DHT22;6994;49.752;6.094;2023-02-28T01:12:52;-2.00;99.90
13848;DHT22;6994;49.752;6.094;2023-02-28T01:15:19;-1.90;99.90
13848;DHT22;6994;49.752;6.094;2023-02-28T01:17:46;-1.80;99.90
13848;DHT22;6994;49.752;6.094;2023-02-28T01:20:13;-1.60;99.90
13848;DHT22;6994;49.752;6.094;2023-02-28T01:22:40;-1.50;99.90
13848;DHT22;6994;49.752;6.094;2023-02-28T01:25:08;-1.30;99.90
13848;DHT22;6994;49.752;6.094;2023-02-28T01:27:35;-1.30;99.90
13848;DHT22;6994;49.752;6.094;2023-02-28T01:30:03;-1.10;99.90
13848;DHT22;6994;49.752;6.094;2023-02-28T01:32:30;-1.10;99.90
13848;DHT22;6994;49.752;6.094;2023-02-28T01:34:57;-1.20;99.90
13848;DHT22;6994;49.752;6.094;2023-02-28T01:37:24;-1.40;99.90
13848;DHT22;6994;49.752;6.094;2023-02-28T01:39:52;-1.50;99.90
13848;DHT22;6994;49.752;6.094;2023-02-28T01:42:19;-1.70;99.90
13848;DHT22;6994;49.752;6.094;2023-02-28T01:47:32;-1.70;99.90
13848;DHT22;6994;49.752;6.094;2023-02-28T01:49:59;-1.80;99.90
13848;DHT22;6994;49.752;6.094;2023-02-28T01:52:26;-2.00;99.90
13848;DHT22;6994;49.752;6.094;2023-02-28T01:54:54;-2.10;99.90
13848;DHT22;6994;49.752;6.094;2023-02-28T01:57:22;-2.20;99.90
13848;DHT22;6994;49.752;6.094;2023-02-28T02:00:04;-2.20;99.90
13848;DHT22;6994;49.752;6.094;2023-02-28T02:02:32;-2.30;99.90
13848;DHT22;6994;49.752;6.094;2023-02-28T02:05:07;-2.10;99.90
13848;DHT22;6994;49.752;6.094;2023-02-28T02:07:35;-2.10;99.90
13848;DHT22;6994;49.752;6.094;2023-02-28T02:10:11;-2.10;99.90
13848;DHT22;6994;49.752;6.094;2023-02-28T02:18:10;-2.00;99.90
13848;DHT22;6994;49.752;6.094;2023-02-28T02:20:39;-2.00;99.90
13848;DHT22;6994;49.752;6.094;2023-02-28T02:23:20;-2.00;99.90
13848;DHT22;6994;49.752;6.094;2023-02-28T02:25:53;-2.00;99.90
13848;DHT22;6994;49.752;6.094;2023-02-28T02:34:36;-2.10;99.90
13848;DHT22;6994;49.752;6.094;2023-02-28T02:37:11;-2.10;99.90
13848;DHT22;6994;49.752;6.094;2023-02-28T02:42:28;-2.10;99.90
13848;DHT22;6994;49.752;6.094;2023-02-28T02:44:54;-2.00;99.90
13848;DHT22;6994;49.752;6.094;2023-02-28T02:47:19;-1.80;99.90
13848;DHT22;6994;49.752;6.094;2023-02-28T02:49:50;-1.80;99.90
13848;DHT22;6994;49.752;6.094;2023-02-28T02:52:17;-1.70;99.90
13848;DHT22;6994;49.752;6.094;2023-02-28T02:54:44;-1.60;99.90
13848;DHT22;6994;49.752;6.094;2023-02-28T02:57:15;-1.60;99.90
13848;DHT22;6994;49.752;6.094;2023-02-28T02:59:41;-1.60;99.90
13848;DHT22;6994;49.752;6.094;2023-02-28T03:02:10;-1.60;99.90
13848;DHT22;6994;49.752;6.094;2023-02-28T03:04:38;-1.50;99.90
13848;DHT22;6994;49.752;6.094;2023-02-28T03:07:03;-1.50;99.90
13848;DHT22;6994;49.752;6.094;2023-02-28T03:09:32;-1.30;99.90
13848;DHT22;6994;49.752;6.094;2023-02-28T03:11:57;-1.10;99.90
13848;DHT22;6994;49.752;6.094;2023-02-28T03:14:33;-0.90;99.90
13848;DHT22;6994;49.752;6.094;2023-02-28T03:17:11;-0.80;99.90
13848;DHT22;6994;49.752;6.094;2023-02-28T03:22:49;-0.90;99.90
13848;DHT22;6994;49.752;6.094;2023-02-28T03:25:32;-1.00;99.90
13848;DHT22;6994;49.752;6.094;2023-02-28T03:28:02;-0.80;99.90
13848;DHT22;6994;49.752;6.094;2023-02-28T03:30:44;-0.50;99.90
13848;DHT22;6994;49.752;6.094;2023-02-28T03:33:17;-0.50;99.90
13848;DHT22;6994;49.752;6.094;2023-02-28T03:35:41;-0.60;99.90
13848;DHT22;6994;49.752;6.094;2023-02-28T03:38:14;-0.70;99.90
13848;DHT22;6994;49.752;6.094;2023-02-28T03:40:40;-0.70;99.90
13848;DHT22;6994;49.752;6.094;2023-02-28T03:43:09;-0.80;99.90
13848;DHT22;6994;49.752;6.094;2023-02-28T03:45:35;-0.80;99.90
13848;DHT22;6994;49.752;6.094;2023-02-28T03:48:12;-0.80;99.90
13848;DHT22;6994;49.752;6.094;2023-02-28T03:50:37;-0.80;99.90
13848;DHT22;6994;49.752;6.094;2023-02-28T03:53:06;-0.80;99.90
13848;DHT22;6994;49.752;6.094;2023-02-28T03:55:32;-0.80;99.90
13848;DHT22;6994;49.752;6.094;2023-02-28T04:01:12;-0.80;99.90
13848;DHT22;6994;49.752;6.094;2023-02-28T04:03:38;-0.80;99.90
13848;DHT22;6994;49.752;6.094;2023-02-28T04:06:05;-0.90;99.90
13848;DHT22;6994;49.752;6.094;2023-02-28T04:08:32;-0.90;99.90
13848;DHT22;6994;49.752;6.094;2023-02-28T04:11:13;-1.00;99.90
13848;DHT22;6994;49.752;6.094;2023-02-28T04:13:35;-1.00;99.90
13848;DHT22;6994;49.752;6.094;2023-02-28T04:16:06;-1.10;99.90
13848;DHT22;6994;49.752;6.094;2023-02-28T04:18:30;-1.10;99.90
13848;DHT22;6994;49.752;6.094;2023-02-28T04:20:59;-1.20;99.90
13848;DHT22;6994;49.752;6.094;2023-02-28T04:23:25;-1.30;99.90
13848;DHT22;6994;49.752;6.094;2023-02-28T04:25:54;-1.20;99.90
13848;DHT22;6994;49.752;6.094;2023-02-28T04:28:21;-1.20;99.90
13848;DHT22;6994;49.752;6.094;2023-02-28T04:30:54;-1.20;99.90
13848;DHT22;6994;49.752;6.094;2023-02-28T04:33:15;-1.20;99.90
13848;DHT22;6994;49.752;6.094;2023-02-28T04:35:43;-1.30;99.90
13848;DHT22;6994;49.752;6.094;2023-02-28T04:38:10;-1.20;99.90
13848;DHT22;6994;49.752;6.094;2023-02-28T04:40:37;-1.20;99.90
13848;DHT22;6994;49.752;6.094;2023-02-28T04:43:04;-1.30;99.90
13848;DHT22;6994;49.752;6.094;2023-02-28T04:45:31;-1.50;99.90
13848;DHT22;6994;49.752;6.094;2023-02-28T04:47:59;-1.60;99.90
13848;DHT22;6994;49.752;6.094;2023-02-28T04:50:26;-1.70;99.90
13848;DHT22;6994;49.752;6.094;2023-02-28T04:52:53;-1.80;99.90
13848;DHT22;6994;49.752;6.094;2023-02-28T04:55:20;-1.90;99.90
13848;DHT22;6994;49.752;6.094;2023-02-28T04:57:48;-1.70;99.90
13848;DHT22;6994;49.752;6.094;2023-02-28T05:00:16;-1.60;99.90
13848;DHT22;6994;49.752;6.094;2023-02-28T05:02:43;-1.60;99.90
13848;DHT22;6994;49.752;6.094;2023-02-28T05:05:11;-1.50;99.90
13848;DHT22;6994;49.752;6.094;2023-02-28T05:07:39;-1.50;99.90
13848;DHT22;6994;49.752;6.094;2023-02-28T05:10:07;-1.50;99.90
13848;DHT22;6994;49.752;6.094;2023-02-28T05:12:35;-1.60;99.90
13848;DHT22;6994;49.752;6.094;2023-02-28T05:15:05;-1.50;99.90
13848;DHT22;6994;49.752;6.094;2023-02-28T05:17:32;-1.50;99.90
13848;DHT22;6994;49.752;6.094;2023-02-28T05:19:59;-1.50;99.90
13848;DHT22;6994;49.752;6.094;2023-02-28T05:22:26;-1.40;99.90
13848;DHT22;6994;49.752;6.094;2023-02-28T05:24:54;-1.30;99.90
13848;DHT22;6994;49.752;6.094;2023-02-28T05:27:21;-1.30;99.90
13848;DHT22;6994;49.752;6.094;2023-02-28T05:29:48;-1.30;99.90
13848;DHT22;6994;49.752;6.094;2023-02-28T05:32:15;-1.30;99.90
13848;DHT22;6994;49.752;6.094;2023-02-28T05:34:42;-1.30;99.90
13848;DHT22;6994;49.752;6.094;2023-02-28T05:37:12;-1.30;99.90
13848;DHT22;6994;49.752;6.094;2023-02-28T05:39:39;-1.40;99.90
13848;DHT22;6994;49.752;6.094;2023-02-28T05:42:07;-1.30;99.90
13848;DHT22;6994;49.752;6.094;2023-02-28T05:44:34;-1.30;99.90
13848;DHT22;6994;49.752;6.094;2023-02-28T05:47:02;-1.40;99.90
13848;DHT22;6994;49.752;6.094;2023-02-28T05:49:29;-1.40;99.90
13848;DHT22;6994;49.752;6.094;2023-02-28T05:51:56;-1.30;99.90
13848;DHT22;6994;49.752;6.094;2023-02-28T05:54:23;-1.40;99.90
13848;DHT22;6994;49.752;6.094;2023-02-28T05:56:51;-1.40;99.90
13848;DHT22;6994;49.752;6.094;2023-02-28T05:59:18;-1.40;99.90
13848;DHT22;6994;49.752;6.094;2023-02-28T06:01:45;-1.40;99.90
13848;DHT22;6994;49.752;6.094;2023-02-28T06:04:12;-1.40;99.90
13848;DHT22;6994;49.752;6.094;2023-02-28T06:06:39;-1.40;99.90
13848;DHT22;6994;49.752;6.094;2023-02-28T06:09:07;-1.50;99.90
13848;DHT22;6994;49.752;6.094;2023-02-28T06:11:34;-1.50;99.90
13848;DHT22;6994;49.752;6.094;2023-02-28T06:14:01;-1.50;99.90
13848;DHT22;6994;49.752;6.094;2023-02-28T06:16:29;-1.50;99.90
13848;DHT22;6994;49.752;6.094;2023-02-28T06:18:59;-1.50;99.90
13848;DHT22;6994;49.752;6.094;2023-02-28T06:21:25;-1.60;99.90
13848;DHT22;6994;49.752;6.094;2023-02-28T06:23:53;-1.60;99.90
13848;DHT22;6994;49.752;6.094;2023-02-28T06:26:21;-1.60;99.90
13848;DHT22;6994;49.752;6.094;2023-02-28T06:28:48;-1.60;99.90
13848;DHT22;6994;49.752;6.094;2023-02-28T06:31:16;-1.60;99.90
13848;DHT22;6994;49.752;6.094;2023-02-28T06:33:43;-1.60;99.90
13848;DHT22;6994;49.752;6.094;2023-02-28T06:36:10;-1.60;99.90
13848;DHT22;6994;49.752;6.094;2023-02-28T06:38:37;-1.60;99.90
13848;DHT22;6994;49.752;6.094;2023-02-28T06:41:05;-1.60;99.90
13848;DHT22;6994;49.752;6.094;2023-02-28T06:43:34;-1.50;99.90
13848;DHT22;6994;49.752;6.094;2023-02-28T06:45:59;-1.30;99.90
13848;DHT22;6994;49.752;6.094;2023-02-28T06:48:26;-1.20;99.90
13848;DHT22;6994;49.752;6.094;2023-02-28T06:51:04;-1.10;99.90
13848;DHT22;6994;49.752;6.094;2023-02-28T06:53:31;-1.20;99.90
13848;DHT22;6994;49.752;6.094;2023-02-28T06:55:58;-1.20;99.90
13848;DHT22;6994;49.752;6.094;2023-02-28T06:58:25;-1.20;99.90
13848;DHT22;6994;49.752;6.094;2023-02-28T07:00:52;-1.30;99.90
13848;DHT22;6994;49.752;6.094;2023-02-28T07:03:19;-1.10;99.90
13848;DHT22;6994;49.752;6.094;2023-02-28T07:05:47;-1.00;99.90
13848;DHT22;6994;49.752;6.094;2023-02-28T07:08:15;-0.80;99.90
13848;DHT22;6994;49.752;6.094;2023-02-28T07:10:42;-0.70;99.90
13848;DHT22;6994;49.752;6.094;2023-02-28T07:13:10;-0.70;99.90
13848;DHT22;6994;49.752;6.094;2023-02-28T07:15:37;-0.80;99.90
13848;DHT22;6994;49.752;6.094;2023-02-28T07:18:05;-0.80;99.90
13848;DHT22;6994;49.752;6.094;2023-02-28T07:20:33;-0.80;99.90
13848;DHT22;6994;49.752;6.094;2023-02-28T07:23:01;-0.80;99.90
13848;DHT22;6994;49.752;6.094;2023-02-28T07:25:29;-0.80;99.90
13848;DHT22;6994;49.752;6.094;2023-02-28T07:27:57;-0.80;99.90
13848;DHT22;6994;49.752;6.094;2023-02-28T07:30:24;-0.80;99.90
13848;DHT22;6994;49.752;6.094;2023-02-28T07:32:51;-0.80;99.90
13848;DHT22;6994;49.752;6.094;2023-02-28T07:35:18;-0.80;99.90
13848;DHT22;6994;49.752;6.094;2023-02-28T07:37:46;-0.80;99.90
13848;DHT22;6994;49.752;6.094;2023-02-28T07:40:13;-0.70;99.90
13848;DHT22;6994;49.752;6.094;2023-02-28T07:42:40;-0.70;99.90
13848;DHT22;6994;49.752;6.094;2023-02-28T07:45:08;-0.60;99.90
13848;DHT22;6994;49.752;6.094;2023-02-28T07:47:35;-0.60;99.90
13848;DHT22;6994;49.752;6.094;2023-02-28T07:50:02;-0.50;99.90
13848;DHT22;6994;49.752;6.094;2023-02-28T07:52:29;-0.50;99.90
13848;DHT22;6994;49.752;6.094;2023-02-28T07:54:56;-0.20;99.90
13848;DHT22;6994;49.752;6.094;2023-02-28T07:57:23;-0.10;99.90
13848;DHT22;6994;49.752;6.094;2023-02-28T07:59:51;0.00;99.90
13848;DHT22;6994;49.752;6.094;2023-02-28T08:02:18;0.00;99.90
13848;DHT22;6994;49.752;6.094;2023-02-28T08:04:45;0.10;99.90
13848;DHT22;6994;49.752;6.094;2023-02-28T08:07:12;0.10;99.90
13848;DHT22;6994;49.752;6.094;2023-02-28T08:09:40;0.10;99.90
13848;DHT22;6994;49.752;6.094;2023-02-28T08:12:07;0.10;99.90
13848;DHT22;6994;49.752;6.094;2023-02-28T08:14:34;0.20;99.90
13848;DHT22;6994;49.752;6.094;2023-02-28T08:17:01;0.20;99.90
13848;DHT22;6994;49.752;6.094;2023-02-28T08:19:28;0.30;99.90
13848;DHT22;6994;49.752;6.094;2023-02-28T08:21:56;0.40;99.90
13848;DHT22;6994;49.752;6.094;2023-02-28T08:24:23;0.40;99.90
13848;DHT22;6994;49.752;6.094;2023-02-28T08:26:50;0.70;99.90
13848;DHT22;6994;49.752;6.094;2023-02-28T08:29:17;0.80;99.90
13848;DHT22;6994;49.752;6.094;2023-02-28T08:31:44;0.80;99.90
13848;DHT22;6994;49.752;6.094;2023-02-28T08:34:12;0.90;99.90
13848;DHT22;6994;49.752;6.094;2023-02-28T08:36:39;0.90;99.90
13848;DHT22;6994;49.752;6.094;2023-02-28T08:39:06;0.90;99.90
13848;DHT22;6994;49.752;6.094;2023-02-28T08:41:33;0.90;99.90
13848;DHT22;6994;49.752;6.094;2023-02-28T08:44:00;0.90;99.90
13848;DHT22;6994;49.752;6.094;2023-02-28T08:46:27;1.00;99.90
13848;DHT22;6994;49.752;6.094;2023-02-28T08:48:55;1.00;99.90
13848;DHT22;6994;49.752;6.094;2023-02-28T08:51:22;1.00;99.90
13848;DHT22;6994;49.752;6.094;2023-02-28T08:53:49;1.10;99.90
13848;DHT22;6994;49.752;6.094;2023-02-28T08:56:16;1.10;99.90
13848;DHT22;6994;49.752;6.094;2023-02-28T08:58:44;1.20;99.90
13848;DHT22;6994;49.752;6.094;2023-02-28T09:01:18;1.20;99.90
13848;DHT22;6994;49.752;6.094;2023-02-28T09:03:44;1.30;99.90
13848;DHT22;6994;49.752;6.094;2023-02-28T09:06:12;1.40;99.90
13848;DHT22;6994;49.752;6.094;2023-02-28T09:08:40;1.50;99.90
13848;DHT22;6994;49.752;6.094;2023-02-28T09:11:08;1.50;99.90
13848;DHT22;6994;49.752;6.094;2023-02-28T09:13:36;1.50;99.90
13848;DHT22;6994;49.752;6.094;2023-02-28T09:16:04;1.70;99.90
13848;DHT22;6994;49.752;6.094;2023-02-28T09:18:31;1.60;99.90
13848;DHT22;6994;49.752;6.094;2023-02-28T09:20:58;1.70;99.90
13848;DHT22;6994;49.752;6.094;2023-02-28T09:23:25;1.80;99.90
13848;DHT22;6994;49.752;6.094;2023-02-28T09:25:53;1.90;99.90
13848;DHT22;6994;49.752;6.094;2023-02-28T09:28:20;1.90;99.90
13848;DHT22;6994;49.752;6.094;2023-02-28T09:30:48;2.20;99.90
13848;DHT22;6994;49.752;6.094;2023-02-28T09:33:14;2.30;99.90
13848;DHT22;6994;49.752;6.094;2023-02-28T09:35:42;2.40;99.90
13848;DHT22;6994;49.752;6.094;2023-02-28T09:38:09;2.40;99.90
13848;DHT22;6994;49.752;6.094;2023-02-28T09:43:06;2.70;99.90
13848;DHT22;6994;49.752;6.094;2023-02-28T09:45:37;2.70;99.90
13848;DHT22;6994;49.752;6.094;2023-02-28T09:48:23;2.70;99.90
13848;DHT22;6994;49.752;6.094;2023-02-28T09:50:46;2.70;99.90
13848;DHT22;6994;49.752;6.094;2023-02-28T09:53:29;2.80;99.90
13848;DHT22;6994;49.752;6.094;2023-02-28T09:55:57;2.80;99.90
13848;DHT22;6994;49.752;6.094;2023-02-28T10:03:44;3.00;98.90
13848;DHT22;6994;49.752;6.094;2023-02-28T10:06:11;3.20;98.80
13848;DHT22;6994;49.752;6.094;2023-02-28T10:08:41;3.20;98.80
13848;DHT22;6994;49.752;6.094;2023-02-28T10:11:06;3.30;97.70
13848;DHT22;6994;49.752;6.094;2023-02-28T10:13:50;3.30;98.40
13848;DHT22;6994;49.752;6.094;2023-02-28T10:16:16;3.50;98.50
13848;DHT22;6994;49.752;6.094;2023-02-28T10:18:59;3.60;98.10
13848;DHT22;6994;49.752;6.094;2023-02-28T10:21:31;3.80;98.00
13848;DHT22;6994;49.752;6.094;2023-02-28T10:24:05;4.20;96.40
13848;DHT22;6994;49.752;6.094;2023-02-28T10:26:31;4.40;96.50
13848;DHT22;6994;49.752;6.094;2023-02-28T10:28:58;4.50;96.40
13848;DHT22;6994;49.752;6.094;2023-02-28T10:31:25;4.60;96.20
13848;DHT22;6994;49.752;6.094;2023-02-28T10:33:52;4.80;94.60
13848;DHT22;6994;49.752;6.094;2023-02-28T10:36:19;4.80;94.30
13848;DHT22;6994;49.752;6.094;2023-02-28T10:38:47;4.90;94.10
13848;DHT22;6994;49.752;6.094;2023-02-28T10:41:15;4.90;94.90
13848;DHT22;6994;49.752;6.094;2023-02-28T10:43:41;4.90;94.70
13848;DHT22;6994;49.752;6.094;2023-02-28T10:48:39;5.30;94.30
13848;DHT22;6994;49.752;6.094;2023-02-28T10:51:10;5.40;94.30
13848;DHT22;6994;49.752;6.094;2023-02-28T10:53:37;5.50;94.40
13848;DHT22;6994;49.752;6.094;2023-02-28T10:56:28;5.80;93.90
13848;DHT22;6994;49.752;6.094;2023-02-28T10:58:53;5.90;93.70
13848;DHT22;6994;49.752;6.094;2023-02-28T11:01:20;6.00;93.80
13848;DHT22;6994;49.752;6.094;2023-02-28T11:03:46;6.00;93.50
13848;DHT22;6994;49.752;6.094;2023-02-28T11:06:19;5.90;93.00
13848;DHT22;6994;49.752;6.094;2023-02-28T11:08:53;5.80;92.60
13848;DHT22;6994;49.752;6.094;2023-02-28T11:11:20;5.80;92.60
13848;DHT22;6994;49.752;6.094;2023-02-28T11:13:47;5.70;92.80
13848;DHT22;6994;49.752;6.094;2023-02-28T11:16:14;5.60;93.40
13848;DHT22;6994;49.752;6.094;2023-02-28T11:18:50;5.60;93.50
13848;DHT22;6994;49.752;6.094;2023-02-28T11:21:18;5.70;93.30
13848;DHT22;6994;49.752;6.094;2023-02-28T11:23:44;5.80;93.60
13848;DHT22;6994;49.752;6.094;2023-02-28T11:26:11;6.10;93.40
13848;DHT22;6994;49.752;6.094;2023-02-28T11:28:39;6.30;93.10
13848;DHT22;6994;49.752;6.094;2023-02-28T11:36:14;7.20;92.40
13848;DHT22;6994;49.752;6.094;2023-02-28T11:38:40;7.10;92.40
13848;DHT22;6994;49.752;6.094;2023-02-28T11:41:17;7.30;91.50
13848;DHT22;6994;49.752;6.094;2023-02-28T11:43:53;7.30;91.50
13848;DHT22;6994;49.752;6.094;2023-02-28T11:46:19;7.40;92.10
13848;DHT22;6994;49.752;6.094;2023-02-28T11:56:33;6.90;90.80
13848;DHT22;6994;49.752;6.094;2023-02-28T12:04:41;7.00;90.50
13848;DHT22;6994;49.752;6.094;2023-02-28T12:07:06;7.30;90.40
13848;DHT22;6994;49.752;6.094;2023-02-28T12:16:13;7.60;91.60
13848;DHT22;6994;49.752;6.094;2023-02-28T12:18:12;7.90;90.40
13848;DHT22;6994;49.752;6.094;2023-02-28T12:26:41;7.50;88.80
13848;DHT22;6994;49.752;6.094;2023-02-28T12:29:29;7.20;90.10
13848;DHT22;6994;49.752;6.094;2023-02-28T12:32:18;7.50;90.50
13848;DHT22;6994;49.752;6.094;2023-02-28T12:34:47;7.50;90.10
13848;DHT22;6994;49.752;6.094;2023-02-28T12:37:24;7.90;89.20
13848;DHT22;6994;49.752;6.094;2023-02-28T12:39:51;7.80;89.20
13848;DHT22;6994;49.752;6.094;2023-02-28T12:42:24;7.60;89.20
13848;DHT22;6994;49.752;6.094;2023-02-28T12:44:49;7.40;89.70
13848;DHT22;6994;49.752;6.094;2023-02-28T12:47:14;7.30;90.20
13848;DHT22;6994;49.752;6.094;2023-02-28T12:50:02;7.30;90.20
13848;DHT22;6994;49.752;6.094;2023-02-28T12:52:40;7.30;91.10
13848;DHT22;6994;49.752;6.094;2023-02-28T12:55:04;7.50;90.70
13848;DHT22;6994;49.752;6.094;2023-02-28T12:58:01;7.70;91.20
13848;DHT22;6994;49.752;6.094;2023-02-28T13:00:16;7.80;91.10
13848;DHT22;6994;49.752;6.094;2023-02-28T13:05:18;7.70;88.90
13848;DHT22;6994;49.752;6.094;2023-02-28T13:08:04;7.80;88.60
13848;DHT22;6994;49.752;6.094;2023-02-28T13:10:41;7.70;86.90
13848;DHT22;6994;49.752;6.094;2023-02-28T13:13:04;7.40;87.70
13848;DHT22;6994;49.752;6.094;2023-02-28T13:15:32;7.10;88.80
13848;DHT22;6994;49.752;6.094;2023-02-28T13:17:59;7.10;90.80
13848;DHT22;6994;49.752;6.094;2023-02-28T13:20:37;7.70;89.60
13848;DHT22;6994;49.752;6.094;2023-02-28T13:22:54;7.70;89.00
13848;DHT22;6994;49.752;6.094;2023-02-28T13:28:00;7.70;88.70
13848;DHT22;6994;49.752;6.094;2023-02-28T13:33:35;8.50;90.00
13848;DHT22;6994;49.752;6.094;2023-02-28T13:44:07;10.40;79.90
13848;DHT22;6994;49.752;6.094;2023-02-28T13:52:09;9.70;81.00
13848;DHT22;6994;49.752;6.094;2023-02-28T14:02:52;9.30;81.10
13848;DHT22;6994;49.752;6.094;2023-02-28T14:05:16;9.00;82.10
13848;DHT22;6994;49.752;6.094;2023-02-28T14:07:49;8.70;83.20
13848;DHT22;6994;49.752;6.094;2023-02-28T14:10:26;8.40;82.80
13848;DHT22;6994;49.752;6.094;2023-02-28T14:12:55;8.20;81.90
13848;DHT22;6994;49.752;6.094;2023-02-28T14:18:05;7.90;82.30
13848;DHT22;6994;49.752;6.094;2023-02-28T14:20:31;8.00;81.70
13848;DHT22;6994;49.752;6.094;2023-02-28T14:23:09;8.00;82.40
13848;DHT22;6994;49.752;6.094;2023-02-28T14:25:36;7.90;83.70
13848;DHT22;6994;49.752;6.094;2023-02-28T14:28:27;7.70;84.10
13848;DHT22;6994;49.752;6.094;2023-02-28T14:31:18;7.70;84.90
13848;DHT22;6994;49.752;6.094;2023-02-28T14:34:03;9.10;86.30
13848;DHT22;6994;49.752;6.094;2023-02-28T14:36:27;10.70;85.80
13848;DHT22;6994;49.752;6.094;2023-02-28T14:38:57;13.90;80.20
13848;DHT22;6994;49.752;6.094;2023-02-28T14:41:35;14.90;74.00
13848;DHT22;6994;49.752;6.094;2023-02-28T14:46:40;15.50;69.20
13848;DHT22;6994;49.752;6.094;2023-02-28T14:49:18;15.10;65.30
13848;DHT22;6994;49.752;6.094;2023-02-28T14:51:43;15.10;65.30
13848;DHT22;6994;49.752;6.094;2023-02-28T14:54:13;14.10;63.90
13848;DHT22;6994;49.752;6.094;2023-02-28T14:56:38;13.20;66.40
13848;DHT22;6994;49.752;6.094;2023-02-28T14:59:05;12.50;67.90
13848;DHT22;6994;49.752;6.094;2023-02-28T15:01:32;12.40;69.80
13848;DHT22;6994;49.752;6.094;2023-02-28T15:04:04;12.30;69.80
13848;DHT22;6994;49.752;6.094;2023-02-28T15:06:30;12.30;70.20
13848;DHT22;6994;49.752;6.094;2023-02-28T15:09:07;12.20;69.10
13848;DHT22;6994;49.752;6.094;2023-02-28T15:11:33;11.80;68.80
13848;DHT22;6994;49.752;6.094;2023-02-28T15:14:00;11.30;70.40
13848;DHT22;6994;49.752;6.094;2023-02-28T15:16:37;11.30;70.00
13848;DHT22;6994;49.752;6.094;2023-02-28T15:21:34;10.70;71.10
13848;DHT22;6994;49.752;6.094;2023-02-28T15:24:17;10.40;73.00
13848;DHT22;6994;49.752;6.094;2023-02-28T15:26:43;10.20;72.20
13848;DHT22;6994;49.752;6.094;2023-02-28T15:29:13;9.90;72.30
13848;DHT22;6994;49.752;6.094;2023-02-28T15:31:45;9.60;72.80
13848;DHT22;6994;49.752;6.094;2023-02-28T15:34:12;9.60;72.70
13848;DHT22;6994;49.752;6.094;2023-02-28T15:36:35;9.30;73.00
13848;DHT22;6994;49.752;6.094;2023-02-28T15:39:17;8.60;75.50
13848;DHT22;6994;49.752;6.094;2023-02-28T15:41:35;8.40;76.50
13848;DHT22;6994;49.752;6.094;2023-02-28T15:44:17;8.30;76.40
13848;DHT22;6994;49.752;6.094;2023-02-28T15:46:52;8.20;76.90
13848;DHT22;6994;49.752;6.094;2023-02-28T15:49:17;8.10;78.00
13848;DHT22;6994;49.752;6.094;2023-02-28T15:51:43;8.20;77.90
13848;DHT22;6994;49.752;6.094;2023-02-28T15:54:20;8.30;78.30
13848;DHT22;6994;49.752;6.094;2023-02-28T15:56:46;8.40;78.10
13848;DHT22;6994;49.752;6.094;2023-02-28T15:59:20;8.60;77.10
13848;DHT22;6994;49.752;6.094;2023-02-28T16:01:47;8.60;77.30
13848;DHT22;6994;49.752;6.094;2023-02-28T16:04:20;8.40;77.10
13848;DHT22;6994;49.752;6.094;2023-02-28T16:07:00;7.80;78.40
13848;DHT22;6994;49.752;6.094;2023-02-28T16:09:27;7.80;77.70
13848;DHT22;6994;49.752;6.094;2023-02-28T16:11:55;7.50;78.40
13848;DHT22;6994;49.752;6.094;2023-02-28T16:14:22;7.20;79.60
13848;DHT22;6994;49.752;6.094;2023-02-28T16:16:53;6.90;79.80
13848;DHT22;6994;49.752;6.094;2023-02-28T16:19:19;6.70;80.30
13848;DHT22;6994;49.752;6.094;2023-02-28T16:21:46;6.50;80.60
13848;DHT22;6994;49.752;6.094;2023-02-28T16:24:13;6.30;80.90
13848;DHT22;6994;49.752;6.094;2023-02-28T16:26:41;6.10;82.10
13848;DHT22;6994;49.752;6.094;2023-02-28T16:29:09;5.90;81.90
13848;DHT22;6994;49.752;6.094;2023-02-28T16:31:35;5.70;82.10
13848;DHT22;6994;49.752;6.094;2023-02-28T16:34:02;5.50;82.60
13848;DHT22;6994;49.752;6.094;2023-02-28T16:36:29;5.60;83.50
13848;DHT22;6994;49.752;6.094;2023-02-28T16:38:56;5.50;83.30
13848;DHT22;6994;49.752;6.094;2023-02-28T16:41:25;5.40;83.30
13848;DHT22;6994;49.752;6.094;2023-02-28T16:43:52;5.20;83.40
13848;DHT22;6994;49.752;6.094;2023-02-28T16:46:18;5.10;83.50
13848;DHT22;6994;49.752;6.094;2023-02-28T16:48:45;4.90;84.10
13848;DHT22;6994;49.752;6.094;2023-02-28T16:51:13;5.00;85.30
13848;DHT22;6994;49.752;6.094;2023-02-28T16:53:40;5.00;84.90
13848;DHT22;6994;49.752;6.094;2023-02-28T16:56:12;4.90;84.30
13848;DHT22;6994;49.752;6.094;2023-02-28T16:58:34;4.70;84.60
13848;DHT22;6994;49.752;6.094;2023-02-28T17:01:02;4.80;86.50
13848;DHT22;6994;49.752;6.094;2023-02-28T17:03:28;4.70;86.10
13848;DHT22;6994;49.752;6.094;2023-02-28T17:05:56;4.60;85.80
13848;DHT22;6994;49.752;6.094;2023-02-28T17:08:23;4.40;85.80
13848;DHT22;6994;49.752;6.094;2023-02-28T17:10:50;4.30;86.40
13848;DHT22;6994;49.752;6.094;2023-02-28T17:13:17;4.30;88.90
13848;DHT22;6994;49.752;6.094;2023-02-28T17:15:44;4.50;88.20
13848;DHT22;6994;49.752;6.094;2023-02-28T17:18:13;4.40;87.30
13848;DHT22;6994;49.752;6.094;2023-02-28T17:20:39;4.40;87.40
13848;DHT22;6994;49.752;6.094;2023-02-28T17:23:06;4.30;86.90
13848;DHT22;6994;49.752;6.094;2023-02-28T17:25:33;4.10;87.10
13848;DHT22;6994;49.752;6.094;2023-02-28T17:28:00;3.90;87.50
13848;DHT22;6994;49.752;6.094;2023-02-28T17:30:28;3.90;89.00
13848;DHT22;6994;49.752;6.094;2023-02-28T17:32:55;3.80;88.50
13848;DHT22;6994;49.752;6.094;2023-02-28T17:35:22;3.70;88.30
13848;DHT22;6994;49.752;6.094;2023-02-28T17:37:49;3.50;88.50
13848;DHT22;6994;49.752;6.094;2023-02-28T17:40:18;3.60;90.00
13848;DHT22;6994;49.752;6.094;2023-02-28T17:42:44;3.50;89.40
13848;DHT22;6994;49.752;6.094;2023-02-28T17:45:12;3.40;89.50